Time,TemperatureF,DewpointF,PressureIn,WindDirection,WindDirectionDegrees,WindSpeedMPH,WindSpeedGustMPH,Humidity,HourlyPrecipIn,Conditions,Clouds,dailyrainin,SoftwareType,DateUTC
2013-03-15 00:03:00,48.0,41.0,30.25,North,357,3.0,3.0,78,0.48,,,-99.99,,2013-03-15 04:03:00,
2013-03-15 00:12:00,48.0,41.0,30.25,North,357,3.0,3.0,78,0.48,,,-99.99,,2013-03-15 04:12:00,
2013-03-15 00:23:00,48.0,41.0,30.25,North,350,4.0,5.0,78,0.48,,,-99.99,,2013-03-15 04:23:00,
2013-03-15 00:32:00,48.0,42.0,30.24,North,0,1.0,4.0,79,0.48,,,-99.99,,2013-03-15 04:32:00,
2013-03-15 00:43:00,48.0,42.0,30.24,North,0,1.0,4.0,79,0.48,,,-99.99,,2013-03-15 04:43:00,
2013-03-15 00:53:00,48.0,41.0,30.24,North,0,0.0,0.0,78,0.48,,,-99.99,,2013-03-15 04:53:00,
2013-03-15 01:02:00,48.0,41.0,30.24,North,0,0.0,0.0,78,0.48,,,-99.99,,2013-03-15 05:02:00,
2013-03-15 01:12:00,48.0,41.0,30.24,North,0,0.0,0.0,78,0.48,,,-99.99,,2013-03-15 05:12:00,
2013-03-15 01:22:00,48.0,41.0,30.24,North,354,2.0,3.0,78,0.48,,,-99.99,,2013-03-15 05:22:00,
2013-03-15 01:32:00,48.0,42.0,30.24,North,4,0.0,2.0,79,0.48,,,-99.99,,2013-03-15 05:32:00,
2013-03-15 01:42:00,48.0,42.0,30.24,North,4,0.0,2.0,79,0.48,,,-99.99,,2013-03-15 05:42:00,
2013-03-15 01:52:00,47.0,41.0,30.24,North,352,2.0,3.0,79,0.48,,,-99.99,,2013-03-15 05:52:00,
2013-03-15 02:02:00,47.0,41.0,30.24,North,7,3.0,5.0,80,0.48,,,-99.99,,2013-03-15 06:02:00,
2013-03-15 02:12:00,47.0,41.0,30.24,North,7,3.0,5.0,80,0.48,,,-99.99,,2013-03-15 06:12:00,
2013-03-15 02:22:00,46.0,40.0,30.24,North,353,3.0,5.0,80,0.48,,,-99.99,,2013-03-15 06:22:00,
2013-03-15 02:32:00,47.0,41.0,30.24,North,7,2.0,3.0,79,0.48,,,-99.99,,2013-03-15 06:32:00,
2013-03-15 02:42:00,47.0,41.0,30.24,North,7,2.0,3.0,79,0.48,,,-99.99,,2013-03-15 06:42:00,
2013-03-15 02:53:00,46.0,40.0,30.23,North,1,3.0,4.0,80,0.48,,,-99.99,,2013-03-15 06:53:00,
2013-03-15 03:02:00,46.0,40.0,30.23,NE,34,2.0,3.0,80,0.48,,,-99.99,,2013-03-15 07:02:00,
2013-03-15 03:12:00,46.0,40.0,30.23,NE,34,2.0,3.0,80,0.48,,,-99.99,,2013-03-15 07:12:00,
2013-03-15 03:22:00,46.0,40.0,30.22,North,4,2.0,3.0,80,0.48,,,-99.99,,2013-03-15 07:22:00,
2013-03-15 03:32:00,46.0,40.0,30.22,North,353,1.0,3.0,80,0.48,,,-99.99,,2013-03-15 07:32:00,
2013-03-15 03:42:00,46.0,40.0,30.22,North,353,1.0,3.0,80,0.48,,,-99.99,,2013-03-15 07:42:00,
2013-03-15 03:52:00,46.0,40.0,30.22,North,356,2.0,3.0,79,0.48,,,-99.99,,2013-03-15 07:52:00,
2013-03-15 04:02:00,47.0,41.0,30.22,North,353,1.0,3.0,78,0.48,,,-99.99,,2013-03-15 08:02:00,
2013-03-15 04:12:00,47.0,41.0,30.22,North,353,1.0,3.0,78,0.48,,,-99.99,,2013-03-15 08:12:00,
2013-03-15 04:23:00,47.0,41.0,30.22,North,359,1.0,3.0,78,0.48,,,-99.99,,2013-03-15 08:23:00,
2013-03-15 04:33:00,47.0,41.0,30.22,North,357,2.0,4.0,80,0.48,,,-99.99,,2013-03-15 08:33:00,
2013-03-15 04:42:00,47.0,41.0,30.22,North,357,2.0,4.0,80,0.48,,,-99.99,,2013-03-15 08:42:00,
2013-03-15 04:52:00,46.0,40.0,30.22,North,359,3.0,4.0,80,0.48,,,-99.99,,2013-03-15 08:52:00,
2013-03-15 05:02:00,46.0,40.0,30.22,North,354,4.0,5.0,80,0.48,,,-99.99,,2013-03-15 09:02:00,
2013-03-15 05:12:00,46.0,40.0,30.22,North,354,4.0,5.0,80,0.48,,,-99.99,,2013-03-15 09:12:00,
2013-03-15 05:22:00,47.0,41.0,30.22,North,354,2.0,4.0,80,0.48,,,-99.99,,2013-03-15 09:22:00,
2013-03-15 05:33:00,47.0,41.0,30.22,North,353,2.0,4.0,79,0.48,,,-99.99,,2013-03-15 09:33:00,
2013-03-15 05:43:00,47.0,41.0,30.22,North,353,2.0,4.0,79,0.48,,,-99.99,,2013-03-15 09:43:00,
2013-03-15 05:53:00,46.0,41.0,30.23,North,359,2.0,4.0,81,0.48,,,-99.99,,2013-03-15 09:53:00,
2013-03-15 06:03:00,45.0,40.0,30.23,North,11,1.0,3.0,81,0.48,,,-99.99,,2013-03-15 10:03:00,
2013-03-15 06:12:00,45.0,40.0,30.23,North,11,1.0,3.0,81,0.48,,,-99.99,,2013-03-15 10:12:00,
2013-03-15 06:23:00,45.0,40.0,30.23,North,353,2.0,4.0,81,0.48,,,-99.99,,2013-03-15 10:23:00,
2013-03-15 06:33:00,45.0,40.0,30.23,North,354,2.0,4.0,81,0.48,,,-99.99,,2013-03-15 10:33:00,
2013-03-15 06:42:00,45.0,40.0,30.23,North,354,2.0,4.0,81,0.48,,,-99.99,,2013-03-15 10:42:00,
2013-03-15 06:52:00,46.0,41.0,30.24,NNW,330,0.0,2.0,81,0.48,,,-99.99,,2013-03-15 10:52:00,
2013-03-15 07:03:00,46.0,40.0,30.24,North,1,1.0,2.0,79,0.48,,,-99.99,,2013-03-15 11:03:00,
2013-03-15 07:12:00,46.0,40.0,30.24,North,1,1.0,2.0,79,0.48,,,-99.99,,2013-03-15 11:12:00,
2013-03-15 07:23:00,46.0,40.0,30.24,North,354,4.0,5.0,80,0.48,,,-99.99,,2013-03-15 11:23:00,
2013-03-15 07:32:00,46.0,40.0,30.24,NNW,345,3.0,3.0,80,0.48,,,-99.99,,2013-03-15 11:32:00,
2013-03-15 07:42:00,46.0,40.0,30.24,NNW,345,3.0,3.0,80,0.48,,,-99.99,,2013-03-15 11:42:00,
2013-03-15 07:52:00,46.0,40.0,30.24,NNW,347,3.0,4.0,80,0.48,,,-99.99,,2013-03-15 11:52:00,
2013-03-15 08:02:00,46.0,41.0,30.25,North,349,5.0,6.0,83,0.48,,,-99.99,,2013-03-15 12:02:00,
2013-03-15 08:12:00,45.0,40.0,30.25,North,357,5.0,6.0,83,0.48,,,-99.99,,2013-03-15 12:12:00,
2013-03-15 08:23:00,45.0,40.0,30.25,North,357,5.0,6.0,83,0.48,,,-99.99,,2013-03-15 12:23:00,
2013-03-15 08:32:00,45.0,40.0,30.26,North,11,2.0,4.0,84,0.48,,,-99.99,,2013-03-15 12:32:00,
2013-03-15 08:42:00,45.0,40.0,30.26,North,11,2.0,4.0,84,0.48,,,-99.99,,2013-03-15 12:42:00,
2013-03-15 08:52:00,45.0,40.0,30.26,NNW,338,1.0,3.0,83,0.48,,,-99.99,,2013-03-15 12:52:00,
2013-03-15 09:02:00,47.0,41.0,30.27,North,352,1.0,4.0,81,0.48,,,-99.99,,2013-03-15 13:02:00,
2013-03-15 09:12:00,47.0,41.0,30.27,North,352,1.0,4.0,81,0.48,,,-99.99,,2013-03-15 13:12:00,
2013-03-15 09:22:00,49.0,43.0,30.26,North,349,0.0,2.0,81,0.48,,,-99.99,,2013-03-15 13:22:00,
2013-03-15 09:32:00,51.0,45.0,30.26,NNW,346,0.0,2.0,79,0.48,,,-99.99,,2013-03-15 13:32:00,
2013-03-15 09:42:00,51.0,45.0,30.26,NNW,346,0.0,2.0,79,0.48,,,-99.99,,2013-03-15 13:42:00,
2013-03-15 09:53:00,51.0,44.0,30.27,North,1,0.0,1.0,77,0.48,,,-99.99,,2013-03-15 13:53:00,
2013-03-15 10:02:00,54.0,41.0,30.27,North,353,4.0,8.0,61,0.48,,,-99.99,,2013-03-15 14:02:00,
2013-03-15 10:12:00,54.0,41.0,30.27,North,353,4.0,8.0,61,0.48,,,-99.99,,2013-03-15 14:12:00,
2013-03-15 10:22:00,55.0,37.0,30.27,ENE,76,3.0,7.0,50,0.48,,,-99.99,,2013-03-15 14:22:00,
2013-03-15 10:33:00,57.0,35.0,30.28,ENE,73,3.0,8.0,44,0.48,,,-99.99,,2013-03-15 14:33:00,
2013-03-15 10:42:00,57.0,35.0,30.28,ENE,73,3.0,8.0,44,0.48,,,-99.99,,2013-03-15 14:42:00,
2013-03-15 10:52:00,59.0,33.0,30.28,ENE,62,6.0,11.0,37,0.48,,,-99.99,,2013-03-15 14:52:00,
2013-03-15 11:02:00,59.0,31.0,30.28,ENE,73,6.0,11.0,34,0.48,,,-99.99,,2013-03-15 15:02:00,
2013-03-15 11:13:00,59.0,31.0,30.28,ENE,73,6.0,11.0,34,0.48,,,-99.99,,2013-03-15 15:13:00,
2013-03-15 11:23:00,60.0,33.0,30.28,NE,53,7.0,11.0,36,0.48,,,-99.99,,2013-03-15 15:23:00,
2013-03-15 11:33:00,61.0,33.0,30.28,NE,49,6.0,11.0,35,0.48,,,-99.99,,2013-03-15 15:33:00,
2013-03-15 11:42:00,61.0,32.0,30.28,ENE,72,7.0,12.0,34,0.48,,,-99.99,,2013-03-15 15:42:00,
2013-03-15 11:53:00,61.0,32.0,30.28,ENE,72,7.0,12.0,34,0.48,,,-99.99,,2013-03-15 15:53:00,
2013-03-15 12:03:00,62.0,33.0,30.27,North,354,5.0,8.0,34,0.48,,,-99.99,,2013-03-15 16:03:00,
2013-03-15 12:12:00,62.0,33.0,30.27,ENE,62,4.0,9.0,34,0.48,,,-99.99,,2013-03-15 16:12:00,
2013-03-15 12:23:00,62.0,33.0,30.27,ENE,62,4.0,9.0,34,0.48,,,-99.99,,2013-03-15 16:23:00,
2013-03-15 12:32:00,64.0,36.0,30.27,ENE,77,5.0,11.0,35,0.48,,,-99.99,,2013-03-15 16:32:00,
2013-03-15 12:42:00,64.0,36.0,30.27,ENE,77,5.0,11.0,35,0.48,,,-99.99,,2013-03-15 16:42:00,
2013-03-15 12:52:00,63.0,34.0,30.26,NNW,346,2.0,6.0,34,0.48,,,-99.99,,2013-03-15 16:52:00,
2013-03-15 13:02:00,64.0,35.0,30.26,NNW,340,4.0,10.0,34,0.48,,,-99.99,,2013-03-15 17:02:00,
2013-03-15 13:12:00,64.0,35.0,30.26,NNW,340,4.0,10.0,34,0.48,,,-99.99,,2013-03-15 17:12:00,
2013-03-15 13:22:00,64.0,37.0,30.25,NE,34,1.0,9.0,36,0.48,,,-99.99,,2013-03-15 17:22:00,
2013-03-15 13:32:00,65.0,37.0,30.24,North,357,2.0,9.0,35,0.48,,,-99.99,,2013-03-15 17:32:00,
2013-03-15 13:42:00,65.0,37.0,30.24,North,357,2.0,9.0,35,0.48,,,-99.99,,2013-03-15 17:42:00,
2013-03-15 13:53:00,66.0,35.0,30.24,NNW,342,5.0,10.0,32,0.48,,,-99.99,,2013-03-15 17:53:00,
2013-03-15 14:02:00,66.0,36.0,30.22,NNW,347,5.0,11.0,33,0.48,,,-99.99,,2013-03-15 18:02:00,
2013-03-15 14:12:00,66.0,36.0,30.22,NNW,347,5.0,11.0,33,0.48,,,-99.99,,2013-03-15 18:12:00,
2013-03-15 14:22:00,68.0,36.0,30.21,East,82,5.0,16.0,31,0.48,,,-99.99,,2013-03-15 18:22:00,
2013-03-15 14:32:00,68.0,35.0,30.21,East,93,5.0,9.0,30,0.48,,,-99.99,,2013-03-15 18:32:00,
2013-03-15 14:42:00,68.0,35.0,30.21,East,93,5.0,9.0,30,0.48,,,-99.99,,2013-03-15 18:42:00,
2013-03-15 14:52:00,68.0,35.0,30.21,North,349,5.0,10.0,29,0.48,,,-99.99,,2013-03-15 18:52:00,
2013-03-15 15:02:00,68.0,36.0,30.20,East,79,3.0,9.0,31,0.48,,,-99.99,,2013-03-15 19:02:00,
2013-03-15 15:12:00,68.0,36.0,30.20,East,79,3.0,9.0,31,0.48,,,-99.99,,2013-03-15 19:12:00,
2013-03-15 15:22:00,69.0,34.0,30.19,NNW,339,3.0,8.0,27,0.48,,,-99.99,,2013-03-15 19:22:00,
2013-03-15 15:32:00,70.0,35.0,30.18,East,80,7.0,14.0,28,0.48,,,-99.99,,2013-03-15 19:32:00,
2013-03-15 15:42:00,70.0,35.0,30.18,East,80,7.0,14.0,28,0.48,,,-99.99,,2013-03-15 19:42:00,
2013-03-15 15:52:00,70.0,36.0,30.17,East,93,5.0,10.0,29,0.48,,,-99.99,,2013-03-15 19:52:00,
2013-03-15 16:02:00,70.0,36.0,30.16,East,79,5.0,13.0,29,0.48,,,-99.99,,2013-03-15 20:02:00,
2013-03-15 16:12:00,70.0,36.0,30.16,East,79,5.0,13.0,29,0.48,,,-99.99,,2013-03-15 20:12:00,
2013-03-15 16:22:00,71.0,37.0,30.16,NNW,340,3.0,8.0,29,0.48,,,-99.99,,2013-03-15 20:22:00,
2013-03-15 16:32:00,71.0,37.0,30.16,East,86,4.0,9.0,29,0.48,,,-99.99,,2013-03-15 20:32:00,
2013-03-15 16:42:00,71.0,37.0,30.16,East,86,4.0,9.0,29,0.48,,,-99.99,,2013-03-15 20:42:00,
2013-03-15 16:52:00,71.0,35.0,30.16,ENE,68,4.0,8.0,27,0.48,,,-99.99,,2013-03-15 20:52:00,
2013-03-15 17:02:00,71.0,35.0,30.16,East,79,3.0,9.0,27,0.48,,,-99.99,,2013-03-15 21:02:00,
2013-03-15 17:12:00,71.0,35.0,30.16,East,79,3.0,9.0,27,0.48,,,-99.99,,2013-03-15 21:12:00,
2013-03-15 17:22:00,72.0,35.0,30.15,SE,142,4.0,6.0,26,0.48,,,-99.99,,2013-03-15 21:22:00,
2013-03-15 17:33:00,72.0,35.0,30.15,SE,129,2.0,7.0,26,0.48,,,-99.99,,2013-03-15 21:33:00,
2013-03-15 17:43:00,72.0,35.0,30.15,SE,129,2.0,7.0,26,0.48,,,-99.99,,2013-03-15 21:43:00,
2013-03-15 17:53:00,73.0,36.0,30.15,East,79,4.0,8.0,26,0.48,,,-99.99,,2013-03-15 21:53:00,
2013-03-15 18:03:00,71.0,36.0,30.14,NNW,345,3.0,6.0,28,0.48,,,-99.99,,2013-03-15 22:03:00,
2013-03-15 18:14:00,71.0,36.0,30.14,NNW,345,3.0,6.0,28,0.48,,,-99.99,,2013-03-15 22:14:00,
2013-03-15 18:22:00,71.0,35.0,30.14,ENE,66,2.0,5.0,27,0.48,,,-99.99,,2013-03-15 22:22:00,
2013-03-15 18:32:00,71.0,36.0,30.14,NE,55,3.0,6.0,28,0.48,,,-99.99,,2013-03-15 22:32:00,
2013-03-15 18:42:00,71.0,36.0,30.14,NE,55,3.0,6.0,28,0.48,,,-99.99,,2013-03-15 22:42:00,
2013-03-15 18:53:00,72.0,36.0,30.14,ENE,73,5.0,8.0,27,0.48,,,-99.99,,2013-03-15 22:53:00,
2013-03-15 19:02:00,72.0,36.0,30.15,East,82,4.0,6.0,27,0.48,,,-99.99,,2013-03-15 23:02:00,
2013-03-15 19:12:00,72.0,36.0,30.15,East,82,4.0,6.0,27,0.48,,,-99.99,,2013-03-15 23:12:00,
2013-03-15 19:22:00,72.0,37.0,30.15,ESE,108,4.0,6.0,28,0.48,,,-99.99,,2013-03-15 23:22:00,
2013-03-15 19:32:00,71.0,38.0,30.15,East,89,4.0,5.0,30,0.48,,,-99.99,,2013-03-15 23:32:00,
2013-03-15 19:42:00,71.0,38.0,30.15,East,89,4.0,5.0,30,0.48,,,-99.99,,2013-03-15 23:42:00,
2013-03-15 19:53:00,70.0,38.0,30.15,East,97,3.0,4.0,31,0.48,,,-99.99,,2013-03-15 23:53:00,
2013-03-15 20:03:00,67.0,38.0,30.16,ESE,104,4.0,5.0,35,0.48,,,-99.99,,2013-03-16 00:03:00,
2013-03-15 20:12:00,67.0,38.0,30.16,ESE,104,4.0,5.0,35,0.48,,,-99.99,,2013-03-16 00:12:00,
2013-03-15 20:22:00,66.0,38.0,30.16,ESE,103,4.0,4.0,35,0.48,,,-99.99,,2013-03-16 00:22:00,
2013-03-15 20:32:00,66.0,38.0,30.16,SSE,149,3.0,3.0,35,0.48,,,-99.99,,2013-03-16 00:32:00,
2013-03-15 20:42:00,66.0,38.0,30.16,SSE,149,3.0,3.0,35,0.48,,,-99.99,,2013-03-16 00:42:00,
2013-03-15 20:52:00,65.0,37.0,30.16,SE,134,3.0,4.0,36,0.48,,,-99.99,,2013-03-16 00:52:00,
2013-03-15 21:02:00,65.0,37.0,30.17,SE,128,4.0,4.0,36,0.48,,,-99.99,,2013-03-16 01:02:00,
2013-03-15 21:12:00,65.0,37.0,30.17,SE,128,4.0,4.0,36,0.48,,,-99.99,,2013-03-16 01:12:00,
2013-03-15 21:22:00,64.0,37.0,30.17,SE,127,4.0,5.0,36,0.48,,,-99.99,,2013-03-16 01:22:00,
2013-03-15 21:32:00,60.0,43.0,30.18,WNW,290,6.0,9.0,53,0.48,,,-99.99,,2013-03-16 01:32:00,
2013-03-15 21:42:00,60.0,43.0,30.18,WNW,290,6.0,9.0,53,0.48,,,-99.99,,2013-03-16 01:42:00,
2013-03-15 21:53:00,59.0,43.0,30.18,NW,311,5.0,8.0,56,0.48,,,-99.99,,2013-03-16 01:53:00,
2013-03-15 22:02:00,59.0,42.0,30.18,NW,318,8.0,12.0,53,0.48,,,-99.99,,2013-03-16 02:02:00,
2013-03-15 22:12:00,59.0,42.0,30.18,NW,318,8.0,12.0,53,0.48,,,-99.99,,2013-03-16 02:12:00,
2013-03-15 22:23:00,59.0,43.0,30.18,WNW,285,8.0,11.0,55,0.48,,,-99.99,,2013-03-16 02:23:00,
2013-03-15 22:32:00,59.0,43.0,30.18,WNW,301,7.0,10.0,56,0.48,,,-99.99,,2013-03-16 02:32:00,
2013-03-15 22:42:00,59.0,43.0,30.18,WNW,301,7.0,10.0,56,0.48,,,-99.99,,2013-03-16 02:42:00,
2013-03-15 22:52:00,58.0,43.0,30.19,NW,314,6.0,8.0,57,0.48,,,-99.99,,2013-03-16 02:52:00,
2013-03-15 23:02:00,58.0,44.0,30.19,East,98,6.0,9.0,60,0.48,,,-99.99,,2013-03-16 03:02:00,
2013-03-15 23:12:00,58.0,44.0,30.19,East,98,6.0,9.0,60,0.48,,,-99.99,,2013-03-16 03:12:00,
2013-03-15 23:22:00,57.0,44.0,30.20,East,82,6.0,9.0,61,0.48,,,-99.99,,2013-03-16 03:22:00,
2013-03-15 23:32:00,56.0,43.0,30.20,East,79,4.0,7.0,62,0.48,,,-99.99,,2013-03-16 03:32:00,
2013-03-15 23:43:00,56.0,43.0,30.20,East,79,4.0,7.0,62,0.48,,,-99.99,,2013-03-16 03:43:00,
2013-03-15 23:53:00,56.0,44.0,30.19,ENE,77,4.0,6.0,63,0.48,,,-99.99,,2013-03-16 03:53:00,